Time,TemperatureF,DewpointF,PressureIn,WindDirection,WindDirectionDegrees,WindSpeedMPH,WindSpeedGustMPH,Humidity,HourlyPrecipIn,Conditions,Clouds,dailyrainin,SoftwareType,DateUTC
2013-02-25 00:02:00,34.0,29.0,29.91,NNE,14,0.0,1.0,83,0.00,,,0.08,,2013-02-25 06:02:00,
2013-02-25 00:11:00,34.0,29.0,29.91,NNE,14,0.0,1.0,83,0.00,,,0.08,,2013-02-25 06:11:00,
2013-02-25 00:21:00,34.0,30.0,29.93,ENE,63,0.0,5.0,84,0.00,,,0.08,,2013-02-25 06:21:00,
2013-02-25 00:31:00,34.0,30.0,29.93,NNW,348,0.0,1.0,85,0.00,,,0.08,,2013-02-25 06:31:00,
2013-02-25 00:42:00,34.0,30.0,29.93,NNW,348,0.0,1.0,85,0.00,,,0.08,,2013-02-25 06:42:00,
2013-02-25 00:51:00,34.0,30.0,29.93,NNE,30,0.0,5.0,85,0.00,,,0.08,,2013-02-25 06:51:00,
2013-02-25 01:01:00,34.0,30.0,29.93,NNE,13,0.0,0.0,86,0.00,,,0.08,,2013-02-25 07:01:00,
2013-02-25 01:11:00,33.0,30.0,29.91,North,9,0.0,7.0,87,0.00,,,0.08,,2013-02-25 07:11:00,
2013-02-25 01:21:00,33.0,30.0,29.91,North,9,0.0,7.0,87,0.00,,,0.08,,2013-02-25 07:21:00,
2013-02-25 01:31:00,33.0,30.0,29.91,NNE,29,0.0,7.0,88,0.00,,,0.08,,2013-02-25 07:31:00,
2013-02-25 01:41:00,33.0,30.0,29.91,NNE,29,0.0,7.0,88,0.00,,,0.08,,2013-02-25 07:41:00,
2013-02-25 01:51:00,33.0,30.0,29.91,North,351,1.0,6.0,88,0.00,,,0.08,,2013-02-25 07:51:00,
2013-02-25 02:01:00,33.0,30.0,29.91,North,351,1.0,6.0,88,0.00,,,0.08,,2013-02-25 08:01:00,
2013-02-25 02:11:00,33.0,30.0,29.91,North,351,1.0,6.0,88,0.00,,,0.08,,2013-02-25 08:11:00,
2013-02-25 02:21:00,33.0,30.0,29.92,NNW,344,0.0,1.0,89,0.02,,,0.10,,2013-02-25 08:21:00,
2013-02-25 02:32:00,33.0,30.0,29.92,NNW,339,0.0,1.0,90,0.02,,,0.10,,2013-02-25 08:32:00,
2013-02-25 02:41:00,33.0,30.0,29.92,NNW,339,0.0,1.0,90,0.02,,,0.10,,2013-02-25 08:41:00,
2013-02-25 02:52:00,33.0,30.0,29.91,North,350,0.0,3.0,90,0.02,,,0.10,,2013-02-25 08:52:00,
2013-02-25 03:01:00,33.0,30.0,29.91,NNE,17,2.0,9.0,90,0.01,,,0.10,,2013-02-25 09:01:00,
2013-02-25 03:12:00,33.0,30.0,29.91,NNE,17,2.0,9.0,90,0.01,,,0.10,,2013-02-25 09:12:00,
2013-02-25 03:21:00,33.0,31.0,29.91,NE,44,1.0,9.0,91,0.00,,,0.10,,2013-02-25 09:21:00,
2013-02-25 03:32:00,33.0,31.0,29.91,NNE,32,0.0,4.0,91,0.00,,,0.10,,2013-02-25 09:32:00,
2013-02-25 03:42:00,33.0,31.0,29.91,NNE,32,0.0,4.0,91,0.00,,,0.10,,2013-02-25 09:42:00,
2013-02-25 03:51:00,33.0,31.0,29.91,NNE,28,0.0,4.0,91,0.00,,,0.10,,2013-02-25 09:51:00,
2013-02-25 04:01:00,33.0,31.0,29.92,NE,49,0.0,1.0,91,0.00,,,0.10,,2013-02-25 10:01:00,
2013-02-25 04:11:00,32.0,30.0,29.91,NE,42,0.0,1.0,91,0.00,,,0.10,,2013-02-25 10:11:00,
2013-02-25 04:21:00,32.0,30.0,29.91,NE,42,0.0,1.0,91,0.00,,,0.10,,2013-02-25 10:21:00,
2013-02-25 04:32:00,32.0,30.0,29.91,ENE,59,0.0,2.0,91,0.00,,,0.10,,2013-02-25 10:32:00,
2013-02-25 04:42:00,32.0,30.0,29.91,ENE,59,0.0,2.0,91,0.00,,,0.10,,2013-02-25 10:42:00,
2013-02-25 04:52:00,32.0,30.0,29.91,East,88,0.0,3.0,92,0.00,,,0.10,,2013-02-25 10:52:00,
2013-02-25 05:01:00,32.0,30.0,29.91,ENE,60,2.0,6.0,91,0.00,,,0.10,,2013-02-25 11:01:00,
2013-02-25 05:11:00,32.0,30.0,29.91,ENE,60,2.0,6.0,91,0.00,,,0.10,,2013-02-25 11:11:00,
2013-02-25 05:21:00,32.0,30.0,29.91,NNE,32,2.0,7.0,92,0.00,,,0.10,,2013-02-25 11:21:00,
2013-02-25 05:32:00,32.0,30.0,29.90,ENE,57,2.0,8.0,92,0.00,,,0.10,,2013-02-25 11:32:00,
2013-02-25 05:42:00,32.0,30.0,29.90,ENE,57,2.0,8.0,92,0.00,,,0.10,,2013-02-25 11:42:00,
2013-02-25 05:52:00,32.0,30.0,29.90,NE,34,4.0,7.0,92,0.00,,,0.10,,2013-02-25 11:52:00,
2013-02-25 06:02:00,32.0,30.0,29.90,NE,52,0.0,7.0,92,0.00,,,0.10,,2013-02-25 12:02:00,
2013-02-25 06:11:00,32.0,30.0,29.90,NE,52,0.0,7.0,92,0.00,,,0.10,,2013-02-25 12:11:00,
2013-02-25 06:21:00,32.0,30.0,29.90,NNE,26,2.0,6.0,92,0.00,,,0.10,,2013-02-25 12:21:00,
2013-02-25 06:32:00,32.0,30.0,29.91,NNE,26,1.0,6.0,92,0.00,,,0.10,,2013-02-25 12:32:00,
2013-02-25 06:42:00,32.0,30.0,29.91,NNE,26,1.0,6.0,92,0.00,,,0.10,,2013-02-25 12:42:00,
2013-02-25 06:53:00,32.0,30.0,29.91,NNE,32,2.0,9.0,92,0.00,,,0.10,,2013-02-25 12:53:00,
2013-02-25 07:02:00,32.0,30.0,29.90,NE,37,1.0,7.0,93,0.00,,,0.10,,2013-02-25 13:02:00,
2013-02-25 07:12:00,32.0,30.0,29.90,NE,37,1.0,7.0,93,0.00,,,0.10,,2013-02-25 13:12:00,
2013-02-25 07:22:00,32.0,30.0,29.91,NE,54,1.0,8.0,92,0.00,,,0.10,,2013-02-25 13:22:00,
2013-02-25 07:32:00,32.0,30.0,29.91,NNE,28,0.0,7.0,93,0.00,,,0.10,,2013-02-25 13:32:00,
2013-02-25 07:42:00,32.0,30.0,29.91,NNE,28,0.0,7.0,93,0.00,,,0.10,,2013-02-25 13:42:00,
2013-02-25 07:52:00,31.0,29.0,29.91,North,5,0.0,1.0,93,0.00,,,0.10,,2013-02-25 13:52:00,
2013-02-25 08:03:00,31.0,29.0,29.91,NE,44,1.0,5.0,93,0.00,,,0.10,,2013-02-25 14:03:00,
2013-02-25 08:17:00,31.0,29.0,29.91,NE,44,1.0,5.0,93,0.00,,,0.10,,2013-02-25 14:17:00,
2013-02-25 08:32:00,31.0,29.0,29.90,NNE,19,1.0,10.0,93,0.00,,,0.10,,2013-02-25 14:32:00,
2013-02-25 08:42:00,31.0,29.0,29.90,NNE,19,1.0,10.0,93,0.00,,,0.10,,2013-02-25 14:42:00,
2013-02-25 08:52:00,31.0,29.0,29.90,NNE,29,2.0,6.0,93,0.00,,,0.10,,2013-02-25 14:52:00,
2013-02-25 09:02:00,32.0,30.0,29.90,NE,42,1.0,7.0,93,0.00,,,0.10,,2013-02-25 15:02:00,
2013-02-25 09:11:00,32.0,30.0,29.90,NE,42,1.0,7.0,93,0.00,,,0.10,,2013-02-25 15:11:00,
2013-02-25 09:21:00,32.0,30.0,29.90,ENE,57,1.0,7.0,92,0.00,,,0.10,,2013-02-25 15:21:00,
2013-02-25 09:32:00,32.0,30.0,29.92,NE,51,4.0,9.0,92,0.00,,,0.10,,2013-02-25 15:32:00,
2013-02-25 09:41:00,32.0,30.0,29.92,NE,51,4.0,9.0,92,0.00,,,0.10,,2013-02-25 15:41:00,
2013-02-25 09:51:00,32.0,30.0,29.92,NNE,28,2.0,9.0,92,0.00,,,0.10,,2013-02-25 15:51:00,
2013-02-25 10:02:00,32.0,30.0,29.91,NE,34,4.0,7.0,91,0.00,,,0.10,,2013-02-25 16:02:00,
2013-02-25 10:12:00,32.0,30.0,29.91,NE,34,4.0,7.0,91,0.00,,,0.10,,2013-02-25 16:12:00,
2013-02-25 10:21:00,33.0,30.0,29.91,North,350,4.0,11.0,90,0.00,,,0.10,,2013-02-25 16:21:00,
2013-02-25 10:32:00,33.0,30.0,29.91,North,350,3.0,12.0,89,0.01,,,0.11,,2013-02-25 16:32:00,
2013-02-25 10:42:00,33.0,30.0,29.91,North,350,3.0,12.0,89,0.01,,,0.11,,2013-02-25 16:42:00,
2013-02-25 10:51:00,34.0,31.0,29.89,NE,51,4.0,11.0,88,0.01,,,0.11,,2013-02-25 16:51:00,
2013-02-25 11:01:00,34.0,31.0,29.88,NNE,33,5.0,13.0,87,0.02,,,0.12,,2013-02-25 17:01:00,
2013-02-25 11:11:00,34.0,31.0,29.88,NNE,33,5.0,13.0,87,0.02,,,0.12,,2013-02-25 17:11:00,
2013-02-25 11:21:00,35.0,31.0,29.88,NE,49,3.0,12.0,86,0.04,,,0.13,,2013-02-25 17:21:00,
2013-02-25 11:32:00,35.0,31.0,29.88,WSW,257,3.0,10.0,85,0.05,,,0.15,,2013-02-25 17:32:00,
2013-02-25 11:42:00,35.0,31.0,29.88,WSW,257,3.0,10.0,85,0.05,,,0.15,,2013-02-25 17:42:00,
2013-02-25 11:52:00,35.0,31.0,29.90,NE,49,4.0,10.0,84,0.07,,,0.17,,2013-02-25 17:52:00,
2013-02-25 12:01:00,35.0,31.0,29.88,North,11,5.0,11.0,84,0.08,,,0.19,,2013-02-25 18:01:00,
2013-02-25 12:12:00,35.0,31.0,29.88,North,11,5.0,11.0,84,0.08,,,0.19,,2013-02-25 18:12:00,
2013-02-25 12:21:00,35.0,30.0,29.89,NE,51,5.0,12.0,83,0.08,,,0.18,,2013-02-25 18:21:00,
2013-02-25 12:32:00,35.0,30.0,29.89,ENE,57,5.0,13.0,83,0.08,,,0.20,,2013-02-25 18:32:00,
2013-02-25 12:42:00,35.0,30.0,29.89,ENE,57,5.0,13.0,83,0.08,,,0.20,,2013-02-25 18:42:00,
2013-02-25 12:51:00,35.0,30.0,29.88,NE,36,3.0,18.0,83,0.07,,,0.21,,2013-02-25 18:51:00,
2013-02-25 13:01:00,35.0,30.0,29.87,NNW,340,6.0,12.0,83,0.07,,,0.23,,2013-02-25 19:01:00,
2013-02-25 13:11:00,35.0,30.0,29.87,NNW,340,6.0,12.0,83,0.07,,,0.23,,2013-02-25 19:11:00,
2013-02-25 13:21:00,35.0,30.0,29.86,ENE,67,4.0,10.0,83,0.06,,,0.21,,2013-02-25 19:21:00,
2013-02-25 13:32:00,35.0,30.0,29.86,NNE,15,4.0,11.0,82,0.05,,,0.22,,2013-02-25 19:32:00,
2013-02-25 13:42:00,35.0,30.0,29.86,NNE,15,4.0,11.0,82,0.05,,,0.22,,2013-02-25 19:42:00,
2013-02-25 13:52:00,35.0,30.0,29.85,ENE,63,4.0,10.0,82,0.04,,,0.22,,2013-02-25 19:52:00,
2013-02-25 14:01:00,35.0,30.0,29.85,NNE,17,4.0,11.0,82,0.03,,,0.23,,2013-02-25 20:01:00,
2013-02-25 14:11:00,35.0,30.0,29.85,NNE,17,4.0,11.0,82,0.03,,,0.23,,2013-02-25 20:11:00,
2013-02-25 14:21:00,35.0,30.0,29.85,NE,38,4.0,9.0,83,0.02,,,0.22,,2013-02-25 20:21:00,
2013-02-25 14:32:00,35.0,30.0,29.83,North,349,4.0,12.0,83,0.02,,,0.23,,2013-02-25 20:32:00,
2013-02-25 14:42:00,35.0,30.0,29.83,North,349,4.0,12.0,83,0.02,,,0.23,,2013-02-25 20:42:00,
2013-02-25 14:52:00,35.0,31.0,29.83,NE,48,2.0,12.0,85,0.02,,,0.23,,2013-02-25 20:52:00,
2013-02-25 15:01:00,35.0,31.0,29.82,NE,44,2.0,10.0,86,0.02,,,0.24,,2013-02-25 21:01:00,
2013-02-25 15:11:00,35.0,31.0,29.82,NE,44,2.0,10.0,86,0.02,,,0.24,,2013-02-25 21:11:00,
2013-02-25 15:21:00,34.0,31.0,29.82,NE,40,3.0,9.0,87,0.03,,,0.25,,2013-02-25 21:21:00,
2013-02-25 15:32:00,34.0,31.0,29.82,NE,52,3.0,8.0,88,0.03,,,0.26,,2013-02-25 21:32:00,
2013-02-25 15:42:00,34.0,31.0,29.82,NE,52,3.0,8.0,88,0.03,,,0.26,,2013-02-25 21:42:00,
2013-02-25 15:51:00,34.0,31.0,29.81,ENE,65,2.0,9.0,88,0.04,,,0.27,,2013-02-25 21:51:00,
2013-02-25 16:01:00,34.0,31.0,29.80,NNE,13,2.0,7.0,88,0.03,,,0.27,,2013-02-25 22:01:00,
2013-02-25 16:11:00,34.0,31.0,29.80,NNE,13,2.0,7.0,88,0.03,,,0.27,,2013-02-25 22:11:00,
2013-02-25 16:21:00,35.0,32.0,29.80,ENE,57,2.0,11.0,88,0.02,,,0.27,,2013-02-25 22:21:00,
2013-02-25 16:32:00,35.0,32.0,29.79,NNE,18,3.0,11.0,87,0.01,,,0.27,,2013-02-25 22:32:00,
2013-02-25 16:42:00,35.0,32.0,29.79,NNE,18,3.0,11.0,87,0.01,,,0.27,,2013-02-25 22:42:00,
2013-02-25 16:51:00,35.0,31.0,29.79,NNE,22,2.0,9.0,86,0.00,,,0.27,,2013-02-25 22:51:00,
2013-02-25 17:01:00,35.0,31.0,29.79,NNW,343,3.0,10.0,85,0.00,,,0.27,,2013-02-25 23:01:00,
2013-02-25 17:11:00,35.0,31.0,29.79,NNW,343,3.0,10.0,85,0.00,,,0.27,,2013-02-25 23:11:00,
2013-02-25 17:22:00,35.0,31.0,29.78,NNE,28,3.0,7.0,84,0.00,,,0.27,,2013-02-25 23:22:00,
2013-02-25 17:31:00,35.0,30.0,29.78,NNE,29,2.0,11.0,83,0.00,,,0.27,,2013-02-25 23:31:00,
2013-02-25 17:42:00,35.0,30.0,29.78,NNE,29,2.0,11.0,83,0.00,,,0.27,,2013-02-25 23:42:00,
2013-02-25 17:52:00,34.0,30.0,29.78,NNW,342,3.0,10.0,84,0.00,,,0.27,,2013-02-25 23:52:00,
2013-02-25 18:01:00,34.0,30.0,29.78,North,350,3.0,11.0,84,0.00,,,0.27,,2013-02-26 00:01:00,
2013-02-25 18:12:00,34.0,30.0,29.78,North,350,3.0,11.0,84,0.00,,,0.27,,2013-02-26 00:12:00,
2013-02-25 18:22:00,34.0,30.0,29.77,NNE,13,3.0,10.0,84,0.00,,,0.27,,2013-02-26 00:22:00,
2013-02-25 18:32:00,34.0,29.0,29.77,NE,36,3.0,15.0,83,0.00,,,0.27,,2013-02-26 00:32:00,
2013-02-25 18:42:00,34.0,29.0,29.77,NE,36,3.0,15.0,83,0.00,,,0.27,,2013-02-26 00:42:00,
2013-02-25 18:51:00,34.0,30.0,29.77,NE,35,3.0,12.0,84,0.00,,,0.27,,2013-02-26 00:51:00,
2013-02-25 19:02:00,34.0,30.0,29.76,NNE,30,3.0,11.0,84,0.00,,,0.27,,2013-02-26 01:02:00,
2013-02-25 19:11:00,34.0,30.0,29.76,NNE,30,3.0,11.0,84,0.00,,,0.27,,2013-02-26 01:11:00,
2013-02-25 19:21:00,33.0,29.0,29.76,North,360,3.0,9.0,84,0.00,,,0.27,,2013-02-26 01:21:00,
2013-02-25 19:31:00,33.0,29.0,29.75,NNE,33,3.0,11.0,84,0.00,,,0.27,,2013-02-26 01:31:00,
2013-02-25 19:42:00,33.0,29.0,29.75,NNE,33,3.0,11.0,84,0.00,,,0.27,,2013-02-26 01:42:00,
2013-02-25 19:51:00,33.0,29.0,29.76,NE,40,3.0,10.0,84,0.00,,,0.27,,2013-02-26 01:51:00,
2013-02-25 20:01:00,33.0,29.0,29.75,NNE,13,3.0,9.0,84,0.00,,,0.27,,2013-02-26 02:01:00,
2013-02-25 20:11:00,33.0,29.0,29.75,NNE,13,3.0,9.0,84,0.00,,,0.27,,2013-02-26 02:11:00,
2013-02-25 20:21:00,33.0,29.0,29.76,North,5,2.0,7.0,84,0.00,,,0.27,,2013-02-26 02:21:00,
2013-02-25 20:32:00,33.0,29.0,29.78,North,5,3.0,9.0,84,0.00,,,0.27,,2013-02-26 02:32:00,
2013-02-25 20:42:00,33.0,29.0,29.78,North,5,3.0,9.0,84,0.00,,,0.27,,2013-02-26 02:42:00,
2013-02-25 20:52:00,33.0,29.0,29.80,North,9,2.0,6.0,84,0.00,,,0.27,,2013-02-26 02:52:00,
2013-02-25 21:02:00,33.0,29.0,29.79,North,5,3.0,7.0,84,0.00,,,0.27,,2013-02-26 03:02:00,
2013-02-25 21:11:00,33.0,29.0,29.79,North,5,3.0,7.0,84,0.00,,,0.27,,2013-02-26 03:11:00,
2013-02-25 21:21:00,33.0,29.0,29.81,NNE,21,3.0,7.0,85,0.00,,,0.27,,2013-02-26 03:21:00,
2013-02-25 21:32:00,33.0,29.0,29.80,NNW,346,3.0,9.0,86,0.00,,,0.27,,2013-02-26 03:32:00,
2013-02-25 21:42:00,33.0,29.0,29.80,NNW,346,3.0,9.0,86,0.00,,,0.27,,2013-02-26 03:42:00,
2013-02-25 21:52:00,33.0,29.0,29.80,NNE,23,3.0,9.0,85,0.00,,,0.27,,2013-02-26 03:52:00,
2013-02-25 22:01:00,33.0,29.0,29.81,NNW,340,2.0,12.0,85,0.00,,,0.27,,2013-02-26 04:01:00,
2013-02-25 22:11:00,33.0,29.0,29.81,NNW,340,2.0,12.0,85,0.00,,,0.27,,2013-02-26 04:11:00,
2013-02-25 22:21:00,32.0,30.0,29.82,WNW,302,1.0,7.0,92,0.00,,,0.27,,2013-02-26 04:21:00,
2013-02-25 22:32:00,32.0,30.0,29.82,WNW,302,1.0,7.0,92,0.00,,,0.27,,2013-02-26 04:32:00,
2013-02-25 22:42:00,32.0,30.0,29.82,WNW,302,1.0,7.0,92,0.00,,,0.27,,2013-02-26 04:42:00,
2013-02-25 22:51:00,32.0,29.0,29.82,North,5,4.0,12.0,88,0.00,,,0.27,,2013-02-26 04:51:00,
2013-02-25 23:01:00,31.0,28.0,29.81,NW,321,3.0,11.0,89,0.00,,,0.27,,2013-02-26 05:01:00,
2013-02-25 23:12:00,31.0,28.0,29.81,NNE,23,4.0,17.0,89,0.00,,,0.27,,2013-02-26 05:12:00,
2013-02-25 23:21:00,31.0,28.0,29.81,NNE,23,4.0,17.0,89,0.00,,,0.27,,2013-02-26 05:21:00,
2013-02-25 23:32:00,31.0,28.0,29.81,North,5,5.0,11.0,90,0.01,,,0.28,,2013-02-26 05:32:00,
2013-02-25 23:43:00,31.0,28.0,29.81,North,5,5.0,11.0,90,0.01,,,0.28,,2013-02-26 05:43:00,
2013-02-25 23:52:00,31.0,28.0,29.80,NNW,344,3.0,12.0,90,0.01,,,0.28,,2013-02-26 05:52:00,